createdAt,value
2023-10-09T00:00:01.846Z,75
2023-10-09T00:01:03.285Z,75
2023-10-09T00:02:04.733Z,75
2023-10-09T00:03:06.206Z,75
2023-10-09T00:04:07.673Z,75
2023-10-09T00:05:09.098Z,75
2023-10-09T00:06:10.679Z,75
2023-10-09T00:07:13.156Z,75
2023-10-09T00:08:14.640Z,75
2023-10-09T00:09:16.067Z,75
2023-10-09T00:10:17.512Z,74
2023-10-09T00:11:19.808Z,74
2023-10-09T00:12:21.260Z,74
2023-10-09T00:13:22.704Z,74
2023-10-09T00:14:24.846Z,74
2023-10-09T00:15:27.330Z,74
2023-10-09T00:16:28.798Z,74
2023-10-09T00:17:31.075Z,74
2023-10-09T00:18:33.295Z,75
2023-10-09T00:19:35.524Z,74
2023-10-09T00:20:37.914Z,75
2023-10-09T00:21:40.097Z,75
2023-10-09T00:22:42.404Z,74
2023-10-09T00:23:44.830Z,74
2023-10-09T00:24:47.076Z,75
2023-10-09T00:25:48.498Z,75
2023-10-09T00:26:50.726Z,75
2023-10-09T00:27:52.990Z,75
2023-10-09T00:28:55.249Z,75
2023-10-09T00:29:57.485Z,75
2023-10-09T00:31:00.269Z,75
2023-10-09T00:32:01.795Z,75
2023-10-09T00:33:03.197Z,75
2023-10-09T00:34:04.535Z,75
2023-10-09T00:35:05.938Z,75
2023-10-09T00:36:07.351Z,75
2023-10-09T00:37:08.759Z,75
2023-10-09T00:38:10.165Z,75
2023-10-09T00:39:11.622Z,75
2023-10-09T00:40:13.049Z,75
2023-10-09T00:41:15.509Z,75
2023-10-09T00:42:16.963Z,75
2023-10-09T00:43:18.389Z,75
2023-10-09T00:44:19.799Z,75
2023-10-09T00:45:22.079Z,75
2023-10-09T00:46:23.638Z,75
2023-10-09T00:47:25.138Z,75
2023-10-09T00:48:27.401Z,75
2023-10-09T00:49:29.647Z,75
2023-10-09T00:50:31.876Z,75
2023-10-09T00:51:34.322Z,75
2023-10-09T00:52:36.600Z,75
2023-10-09T00:53:38.799Z,75
2023-10-09T00:54:41.085Z,75
2023-10-09T00:55:43.278Z,75
2023-10-09T00:56:44.693Z,75
2023-10-09T00:57:47.089Z,75
2023-10-09T00:58:49.305Z,75
2023-10-09T00:59:51.567Z,75
2023-10-09T01:00:53.893Z,75
2023-10-09T01:01:56.291Z,75
2023-10-09T01:02:57.837Z,75
2023-10-09T01:03:59.336Z,74
2023-10-09T01:05:02.289Z,74
2023-10-09T01:06:03.758Z,74
2023-10-09T01:07:05.115Z,74
2023-10-09T01:08:06.467Z,74
2023-10-09T01:09:07.904Z,74
2023-10-09T01:10:09.353Z,74
2023-10-09T01:11:11.626Z,74
2023-10-09T01:12:13.114Z,74
2023-10-09T01:13:14.671Z,74
2023-10-09T01:14:16.546Z,74
2023-10-09T01:15:18.088Z,74
2023-10-09T01:16:20.387Z,74
2023-10-09T01:17:22.882Z,74
2023-10-09T01:18:25.246Z,74
2023-10-09T01:19:27.538Z,74
2023-10-09T01:20:28.937Z,74
2023-10-09T01:21:31.190Z,74
2023-10-09T01:22:33.608Z,74
2023-10-09T01:23:35.861Z,74
2023-10-09T01:24:38.076Z,74
2023-10-09T01:25:40.368Z,75
2023-10-09T01:26:42.685Z,75
2023-10-09T01:27:45.149Z,75
2023-10-09T01:28:47.469Z,74
2023-10-09T01:29:49.718Z,75
2023-10-09T01:30:52.179Z,75
2023-10-09T01:31:54.377Z,74
2023-10-09T01:32:56.786Z,75
2023-10-09T01:33:59.193Z,75
2023-10-09T01:35:02.259Z,75
2023-10-09T01:36:04.391Z,74
2023-10-09T01:37:06.717Z,75
2023-10-09T01:38:08.092Z,75
2023-10-09T01:39:09.497Z,75
2023-10-09T01:40:10.932Z,74
2023-10-09T01:41:12.361Z,74
2023-10-09T01:42:13.827Z,74
2023-10-09T01:43:16.220Z,74
2023-10-09T01:44:17.662Z,74
2023-10-09T01:45:20.017Z,74
2023-10-09T01:46:22.317Z,74
2023-10-09T01:47:24.629Z,74
2023-10-09T01:48:26.982Z,74
2023-10-09T01:49:29.256Z,74
2023-10-09T01:50:31.423Z,74
2023-10-09T01:51:33.610Z,74
2023-10-09T01:52:35.049Z,73
2023-10-09T01:53:36.516Z,73
2023-10-09T01:54:38.786Z,73
2023-10-09T01:55:41.124Z,73
2023-10-09T01:56:43.396Z,73
2023-10-09T01:57:45.620Z,73
2023-10-09T01:58:48.038Z,73
2023-10-09T01:59:50.314Z,73
2023-10-09T02:00:52.580Z,73
2023-10-09T02:01:54.837Z,73
2023-10-09T02:02:57.182Z,73
2023-10-09T02:03:59.501Z,73
2023-10-09T02:05:02.320Z,73
2023-10-09T02:06:04.655Z,73
2023-10-09T02:07:06.338Z,73
2023-10-09T02:08:07.754Z,73
2023-10-09T02:09:09.134Z,73
2023-10-09T02:10:10.540Z,73
2023-10-09T02:11:11.951Z,73
2023-10-09T02:12:13.411Z,73
2023-10-09T02:13:15.629Z,73
2023-10-09T02:14:17.099Z,73
2023-10-09T02:15:18.546Z,73
2023-10-09T02:16:20.049Z,73
2023-10-09T02:17:22.306Z,73
2023-10-09T02:18:24.679Z,73
2023-10-09T02:19:27.179Z,73
2023-10-09T02:20:29.627Z,73
2023-10-09T02:21:32.004Z,73
2023-10-09T02:22:34.256Z,73
2023-10-09T02:23:36.517Z,74
2023-10-09T02:24:38.973Z,74
2023-10-09T02:25:41.269Z,74
2023-10-09T02:26:42.671Z,74
2023-10-09T02:27:45.055Z,74
2023-10-09T02:28:47.414Z,74
2023-10-09T02:29:49.849Z,74
2023-10-09T02:30:52.600Z,74
2023-10-09T02:31:54.977Z,74
2023-10-09T02:32:57.224Z,74
2023-10-09T02:33:59.618Z,74
2023-10-09T02:35:02.477Z,74
2023-10-09T02:36:04.692Z,74
2023-10-09T02:37:07.392Z,74
2023-10-09T02:38:08.907Z,74
2023-10-09T02:39:11.366Z,74
2023-10-09T02:40:12.818Z,74
2023-10-09T02:41:14.222Z,74
2023-10-09T02:42:15.643Z,74
2023-10-09T02:43:17.097Z,74
2023-10-09T02:44:19.380Z,74
2023-10-09T02:45:20.938Z,74
2023-10-09T02:46:23.235Z,74
2023-10-09T02:47:26.061Z,74
2023-10-09T02:48:28.498Z,74
2023-10-09T02:49:30.760Z,74
2023-10-09T02:50:33.306Z,74
2023-10-09T02:51:35.603Z,74
2023-10-09T02:52:37.037Z,74
2023-10-09T02:53:38.466Z,74
2023-10-09T02:54:39.910Z,74
2023-10-09T02:55:41.386Z,74
2023-10-09T02:56:43.585Z,74
2023-10-09T02:57:45.916Z,74
2023-10-09T02:58:48.278Z,74
2023-10-09T02:59:49.702Z,74
2023-10-09T03:00:52.391Z,74
2023-10-09T03:01:54.945Z,74
2023-10-09T03:02:57.313Z,74
2023-10-09T03:03:59.608Z,74
2023-10-09T03:05:02.325Z,74
2023-10-09T03:06:04.633Z,74
2023-10-09T03:07:06.880Z,74
2023-10-09T03:08:09.120Z,74
2023-10-09T03:09:10.596Z,74
2023-10-09T03:10:12.075Z,74
2023-10-09T03:11:13.464Z,74
2023-10-09T03:12:14.909Z,74
2023-10-09T03:13:16.405Z,74
2023-10-09T03:14:17.838Z,74
2023-10-09T03:15:19.266Z,74
2023-10-09T03:16:22.456Z,74
2023-10-09T03:17:24.416Z,74
2023-10-09T03:18:26.823Z,74
2023-10-09T03:19:29.071Z,74
2023-10-09T03:20:31.482Z,74
2023-10-09T03:21:33.904Z,74
2023-10-09T03:22:36.118Z,74
2023-10-09T03:23:38.350Z,74
2023-10-09T03:24:40.066Z,74
2023-10-09T03:25:42.312Z,74
2023-10-09T03:26:44.731Z,74
2023-10-09T03:27:46.994Z,74
2023-10-09T03:28:49.219Z,74
2023-10-09T03:29:51.787Z,74
2023-10-09T03:30:54.168Z,73
2023-10-09T03:31:56.616Z,73
2023-10-09T03:32:58.100Z,73
2023-10-09T03:34:00.465Z,73
2023-10-09T03:36:04.867Z,73
2023-10-09T03:37:07.267Z,73
2023-10-09T03:38:09.796Z,73
2023-10-09T03:39:11.670Z,73
2023-10-09T03:40:13.116Z,73
2023-10-09T03:41:17.089Z,73
2023-10-09T03:42:18.886Z,73
2023-10-09T03:43:20.313Z,73
2023-10-09T03:44:21.720Z,73
2023-10-09T03:45:23.135Z,73
2023-10-09T03:46:24.569Z,73
2023-10-09T03:47:27.193Z,73
2023-10-09T03:48:28.742Z,73
2023-10-09T03:49:30.188Z,73
2023-10-09T03:50:32.900Z,73
2023-10-09T03:51:35.200Z,73
2023-10-09T03:52:37.708Z,73
2023-10-09T03:53:40.017Z,74
2023-10-09T03:54:42.369Z,74
2023-10-09T03:55:44.640Z,74
2023-10-09T03:56:46.860Z,74
2023-10-09T03:57:49.222Z,74
2023-10-09T03:58:51.450Z,74
2023-10-09T03:59:53.692Z,74
2023-10-09T04:00:55.899Z,74
2023-10-09T04:01:58.214Z,74
2023-10-09T04:03:00.890Z,74
2023-10-09T04:04:03.429Z,74
2023-10-09T04:05:05.826Z,75
2023-10-09T04:06:07.203Z,75
2023-10-09T04:07:08.586Z,75
2023-10-09T04:08:11.015Z,75
2023-10-09T04:09:13.174Z,75
2023-10-09T04:10:14.662Z,75
2023-10-09T04:11:16.060Z,75
2023-10-09T04:12:17.433Z,75
2023-10-09T04:13:18.851Z,75
2023-10-09T04:14:20.230Z,75
2023-10-09T04:15:21.723Z,75
2023-10-09T04:16:23.152Z,75
2023-10-09T04:17:24.601Z,76
2023-10-09T04:18:26.200Z,76
2023-10-09T04:19:28.660Z,76
2023-10-09T04:20:30.948Z,76
2023-10-09T04:21:32.367Z,76
2023-10-09T04:22:34.712Z,76
2023-10-09T04:23:36.113Z,76
2023-10-09T04:24:38.361Z,76
2023-10-09T04:25:40.602Z,76
2023-10-09T04:26:42.887Z,76
2023-10-09T04:27:45.290Z,76
2023-10-09T04:28:47.732Z,76
2023-10-09T04:29:49.920Z,76
2023-10-09T04:30:52.409Z,76
2023-10-09T04:31:54.643Z,77
2023-10-09T04:32:56.908Z,77
2023-10-09T04:33:59.651Z,77
2023-10-09T04:35:02.321Z,77
2023-10-09T04:36:03.837Z,77
2023-10-09T04:37:06.065Z,77
2023-10-09T04:38:07.485Z,77
2023-10-09T04:39:08.948Z,77
2023-10-09T04:40:10.354Z,76
2023-10-09T04:41:12.652Z,77
2023-10-09T04:42:14.856Z,77
2023-10-09T04:43:16.360Z,77
2023-10-09T04:44:18.061Z,77
2023-10-09T04:45:19.428Z,77
2023-10-09T04:46:21.790Z,77
2023-10-09T04:47:23.384Z,77
2023-10-09T04:48:24.846Z,77
2023-10-09T04:49:26.273Z,77
2023-10-09T04:50:27.695Z,77
2023-10-09T04:51:30.063Z,77
2023-10-09T04:52:32.518Z,76
2023-10-09T04:53:34.768Z,76
2023-10-09T04:54:37.255Z,76
2023-10-09T04:55:39.526Z,76
2023-10-09T04:56:41.720Z,76
2023-10-09T04:57:44.065Z,76
2023-10-09T04:58:46.244Z,76
2023-10-09T04:59:48.958Z,76
2023-10-09T05:00:51.211Z,76
2023-10-09T05:01:53.386Z,76
2023-10-09T05:02:55.670Z,76
2023-10-09T05:03:58.199Z,76
2023-10-09T05:05:00.681Z,76
2023-10-09T05:06:03.238Z,76
2023-10-09T05:07:04.642Z,76
2023-10-09T05:08:06.881Z,76
2023-10-09T05:09:09.276Z,76
2023-10-09T05:10:11.824Z,76
2023-10-09T05:11:14.041Z,76
2023-10-09T05:12:15.463Z,76
2023-10-09T05:13:16.950Z,76
2023-10-09T05:14:18.354Z,76
2023-10-09T05:15:19.730Z,76
2023-10-09T05:16:21.135Z,76
2023-10-09T05:17:22.643Z,76
2023-10-09T05:18:24.129Z,76
2023-10-09T05:19:25.540Z,76
2023-10-09T05:20:26.991Z,76
2023-10-09T05:21:28.453Z,76
2023-10-09T05:22:29.963Z,76
2023-10-09T05:23:32.219Z,76
2023-10-09T05:24:34.571Z,76
2023-10-09T05:25:37.015Z,76
2023-10-09T05:26:38.702Z,76
2023-10-09T05:27:41.082Z,76
2023-10-09T05:28:43.412Z,76
2023-10-09T05:29:45.674Z,76
2023-10-09T05:30:47.122Z,76
2023-10-09T05:31:48.571Z,76
2023-10-09T05:32:50.781Z,76
2023-10-09T05:33:54.235Z,76
2023-10-09T05:34:56.531Z,76
2023-10-09T05:35:57.938Z,76
2023-10-09T05:38:21.469Z,76
2023-10-09T05:40:51.880Z,76
2023-10-09T05:41:53.489Z,76
2023-10-09T05:42:55.048Z,76
2023-10-09T05:43:56.468Z,76
2023-10-09T05:44:57.888Z,76
2023-10-09T05:46:00.161Z,76
2023-10-09T05:47:01.648Z,76
2023-10-09T05:48:03.212Z,76
2023-10-09T05:49:13.070Z,76
2023-10-09T05:50:52.569Z,76
2023-10-09T05:53:21.419Z,76
2023-10-09T05:54:22.882Z,76
2023-10-09T05:55:24.282Z,76
2023-10-09T05:56:25.699Z,75
2023-10-09T05:57:27.115Z,75
2023-10-09T06:17:31.670Z,75
2023-10-09T06:27:32.128Z,75
2023-10-09T06:28:33.592Z,75
2023-10-09T06:29:35.234Z,75
2023-10-09T06:30:51.411Z,74
2023-10-09T06:31:53.988Z,74
2023-10-09T06:32:56.702Z,74
2023-10-09T06:33:58.156Z,74
2023-10-09T06:34:59.594Z,74
2023-10-09T06:36:00.979Z,74
2023-10-09T06:37:02.350Z,74
2023-10-09T06:38:04.597Z,74
2023-10-09T06:39:06.265Z,74
2023-10-09T06:40:07.685Z,74
2023-10-09T06:41:41.248Z,74
2023-10-09T06:42:42.749Z,74
2023-10-09T06:43:44.454Z,74
2023-10-09T06:44:45.880Z,74
2023-10-09T06:45:47.425Z,74
2023-10-09T06:46:49.018Z,74
2023-10-09T06:47:50.441Z,74
2023-10-09T06:51:42.260Z,74
2023-10-09T07:00:01.296Z,73
2023-10-09T07:18:22.010Z,73
2023-10-09T07:19:23.420Z,73
2023-10-09T07:22:31.707Z,73
2023-10-09T07:24:11.917Z,73
2023-10-09T07:30:01.584Z,73
2023-10-09T07:32:31.735Z,73
2023-10-09T07:33:33.212Z,73
2023-10-09T07:35:51.720Z,73
2023-10-09T07:36:53.140Z,73
2023-10-09T07:37:54.562Z,73
2023-10-09T07:38:56.721Z,73
2023-10-09T07:41:42.681Z,73
2023-10-09T07:50:03.005Z,73
2023-10-09T07:51:05.281Z,73
2023-10-09T07:54:12.811Z,73
2023-10-09T08:00:02.997Z,72
2023-10-09T08:01:42.343Z,72
2023-10-09T08:02:44.620Z,72
2023-10-09T08:08:01.590Z,72
2023-10-09T08:09:12.194Z,72
2023-10-09T08:10:22.323Z,72
2023-10-09T08:11:23.734Z,72
2023-10-09T08:12:25.103Z,72
2023-10-09T08:13:26.536Z,72
2023-10-09T08:14:27.938Z,72
2023-10-09T08:15:29.356Z,72
2023-10-09T08:16:31.144Z,72
2023-10-09T08:17:32.772Z,72
2023-10-09T08:18:34.233Z,72
2023-10-09T08:20:02.171Z,72
2023-10-09T08:21:04.389Z,72
2023-10-09T08:23:22.120Z,72
2023-10-09T08:24:23.961Z,72
2023-10-09T08:25:25.355Z,72
2023-10-09T08:26:26.727Z,72
2023-10-09T08:27:32.222Z,72
2023-10-09T08:28:33.652Z,72
2023-10-09T08:29:35.051Z,72
2023-10-09T08:30:37.243Z,72
2023-10-09T08:31:39.503Z,72
2023-10-09T08:35:57.605Z,72
2023-10-09T08:39:12.167Z,72
2023-10-09T08:40:14.612Z,72
2023-10-09T08:41:16.827Z,72
2023-10-09T08:42:19.013Z,72
2023-10-09T08:43:22.112Z,72
2023-10-09T08:44:23.543Z,72
2023-10-09T08:45:25.392Z,72
2023-10-09T08:46:26.830Z,72
2023-10-09T08:47:28.302Z,72
2023-10-09T08:48:29.728Z,72
2023-10-09T08:50:52.537Z,72
2023-10-09T08:52:31.482Z,72
2023-10-09T08:53:33.651Z,72
2023-10-09T08:57:31.374Z,72
2023-10-09T08:58:33.849Z,72
2023-10-09T08:59:36.372Z,72
2023-10-09T09:00:37.813Z,72
2023-10-09T09:01:39.281Z,72
2023-10-09T09:02:40.808Z,72
2023-10-09T09:03:43.385Z,72
2023-10-09T09:04:45.624Z,72
2023-10-09T09:05:47.884Z,72
2023-10-09T09:06:50.036Z,72
2023-10-09T09:07:52.360Z,72
2023-10-09T09:08:54.588Z,71
2023-10-09T09:09:56.782Z,71
2023-10-09T09:10:59.077Z,71
2023-10-09T09:12:01.240Z,71
2023-10-09T09:13:02.761Z,71
2023-10-09T09:14:12.663Z,71
2023-10-09T09:15:52.195Z,71
2023-10-09T09:16:54.516Z,71
2023-10-09T09:17:56.034Z,71
2023-10-09T09:18:58.523Z,71
2023-10-09T09:20:00.703Z,71
2023-10-09T09:21:02.900Z,71
2023-10-09T09:23:22.085Z,71
2023-10-09T09:24:24.620Z,71
2023-10-09T09:25:26.219Z,71
2023-10-09T09:26:27.778Z,71
2023-10-09T09:27:29.169Z,71
2023-10-09T09:28:30.755Z,71
2023-10-09T09:29:32.259Z,71
2023-10-09T09:30:33.659Z,71
2023-10-09T09:31:35.147Z,71
2023-10-09T09:32:37.200Z,71
2023-10-09T09:33:38.799Z,71
2023-10-09T09:34:40.236Z,71
2023-10-09T09:35:42.441Z,71
2023-10-09T09:36:44.742Z,71
2023-10-09T09:37:47.063Z,70
2023-10-09T09:39:12.641Z,70
2023-10-09T09:40:52.213Z,70
2023-10-09T09:41:54.460Z,70
2023-10-09T09:43:22.360Z,70
2023-10-09T09:44:24.602Z,70
2023-10-09T09:46:42.890Z,70
2023-10-09T09:49:12.283Z,70
2023-10-09T09:50:52.290Z,70
2023-10-09T09:52:31.583Z,70
2023-10-09T09:53:33.894Z,70
2023-10-09T09:54:35.374Z,70
2023-10-09T09:55:36.809Z,70
2023-10-09T09:56:38.248Z,70
2023-10-09T09:57:39.693Z,70
2023-10-09T09:58:42.020Z,70
2023-10-09T09:59:47.750Z,70
2023-10-09T10:00:51.153Z,70
2023-10-09T10:01:53.379Z,70
2023-10-09T10:02:55.786Z,70
2023-10-09T10:05:02.390Z,70
2023-10-09T10:06:04.592Z,70
2023-10-09T10:07:06.827Z,69
2023-10-09T10:08:09.005Z,69
2023-10-09T10:09:12.339Z,69
2023-10-09T10:10:14.651Z,69
2023-10-09T10:11:16.964Z,69
2023-10-09T10:12:31.290Z,69
2023-10-09T10:14:12.069Z,69
2023-10-09T10:15:14.354Z,69
2023-10-09T10:16:16.804Z,69
2023-10-09T10:17:19.954Z,69
2023-10-09T10:18:22.522Z,68
2023-10-09T10:19:25.110Z,68
2023-10-09T10:20:52.067Z,67
2023-10-09T10:21:54.305Z,67
2023-10-09T10:22:56.680Z,67
2023-10-09T10:23:58.884Z,66
2023-10-09T10:25:02.407Z,66
2023-10-09T10:26:04.752Z,65
2023-10-09T10:27:06.889Z,65
2023-10-09T10:28:22.144Z,65
2023-10-09T10:29:24.456Z,65
2023-10-09T10:30:52.338Z,65
2023-10-09T10:31:53.838Z,65
2023-10-09T10:32:56.162Z,65
2023-10-09T10:33:58.441Z,65
2023-10-09T10:34:59.890Z,65
2023-10-09T10:36:02.138Z,65
2023-10-09T10:37:04.421Z,65
2023-10-09T10:38:06.661Z,65
2023-10-09T10:39:08.805Z,65
2023-10-09T10:40:11.113Z,65
2023-10-09T10:41:13.613Z,65
2023-10-09T10:42:15.848Z,65
2023-10-09T10:43:18.057Z,65
2023-10-09T10:44:20.497Z,65
2023-10-09T10:45:51.916Z,65
2023-10-09T10:47:32.460Z,65
2023-10-09T10:48:33.944Z,65
2023-10-09T10:50:01.435Z,65
2023-10-09T10:51:03.652Z,65
2023-10-09T10:52:06.038Z,65
2023-10-09T10:53:22.152Z,64
2023-10-09T10:55:52.200Z,64
2023-10-09T10:56:54.466Z,64
2023-10-09T10:58:22.138Z,63
2023-10-09T10:59:24.337Z,63
2023-10-09T11:00:26.653Z,63
2023-10-09T11:01:28.197Z,63
2023-10-09T11:02:30.545Z,63
2023-10-09T11:05:02.961Z,64
2023-10-09T11:06:41.106Z,64
2023-10-09T11:07:42.730Z,65
2023-10-09T11:09:12.578Z,66
2023-10-09T11:10:14.764Z,66
2023-10-09T11:11:17.281Z,66
2023-10-09T11:12:19.580Z,66
2023-10-09T11:13:22.346Z,67
2023-10-09T11:14:24.812Z,68
2023-10-09T11:15:51.947Z,68
2023-10-09T11:16:54.280Z,68
2023-10-09T11:17:56.536Z,69
2023-10-09T11:18:58.775Z,69
2023-10-09T11:20:01.098Z,69
2023-10-09T11:21:03.273Z,69
2023-10-09T11:22:05.567Z,69
2023-10-09T11:23:22.167Z,70
2023-10-09T11:24:24.416Z,70
2023-10-09T11:25:26.768Z,70
2023-10-09T11:26:28.265Z,70
2023-10-09T11:27:30.269Z,70
2023-10-09T11:28:32.697Z,71
2023-10-09T11:29:34.887Z,71
2023-10-09T11:30:36.321Z,71
2023-10-09T11:31:37.768Z,71
2023-10-09T11:32:39.291Z,71
2023-10-09T11:34:11.988Z,72
2023-10-09T11:35:52.171Z,73
2023-10-09T11:36:54.471Z,73
2023-10-09T11:38:22.722Z,74
2023-10-09T11:39:25.068Z,74
2023-10-09T11:40:27.263Z,74
2023-10-09T11:41:29.619Z,74
2023-10-09T11:42:32.365Z,75
2023-10-09T11:43:34.844Z,75
2023-10-09T11:44:36.380Z,75
2023-10-09T11:46:41.121Z,75
2023-10-09T11:49:11.954Z,76
2023-10-09T11:50:13.432Z,77
2023-10-09T11:51:15.865Z,77
2023-10-09T11:52:18.196Z,77
2023-10-09T11:53:22.386Z,78
2023-10-09T11:54:23.856Z,78
2023-10-09T11:55:26.071Z,79
2023-10-09T11:56:28.383Z,79
2023-10-09T11:57:30.871Z,79
2023-10-09T11:58:32.296Z,80
2023-10-09T11:59:33.734Z,80
2023-10-09T12:00:35.924Z,81
2023-10-09T12:01:37.443Z,81
2023-10-09T12:02:39.052Z,81
2023-10-09T12:03:40.511Z,82
2023-10-09T12:04:44.749Z,82
2023-10-09T12:05:48.421Z,82
2023-10-09T12:06:50.699Z,82
2023-10-09T12:10:52.195Z,83
2023-10-09T12:12:03.426Z,83
2023-10-09T12:13:07.179Z,83
2023-10-09T12:14:09.416Z,83
2023-10-09T12:15:11.626Z,83
2023-10-09T12:16:13.996Z,83
2023-10-09T12:17:16.220Z,83
2023-10-09T12:18:18.440Z,83
2023-10-09T12:19:20.611Z,83
2023-10-09T12:20:22.802Z,84
2023-10-09T12:21:25.015Z,84
2023-10-09T12:22:27.186Z,84
2023-10-09T12:23:29.439Z,84
2023-10-09T12:24:31.687Z,84
2023-10-09T12:25:33.160Z,84
2023-10-09T12:26:34.630Z,84
2023-10-09T12:27:36.879Z,84
2023-10-09T12:28:38.518Z,84
2023-10-09T12:29:39.905Z,84
2023-10-09T12:30:41.264Z,84
2023-10-09T12:31:42.737Z,84
2023-10-09T12:33:22.565Z,84
2023-10-09T12:35:52.233Z,85
2023-10-09T12:36:54.842Z,85
2023-10-09T12:37:57.024Z,85
2023-10-09T12:39:12.387Z,85
2023-10-09T12:40:14.580Z,85
2023-10-09T12:41:16.786Z,86
2023-10-09T12:43:22.310Z,86
2023-10-09T12:44:24.490Z,86
2023-10-09T12:45:25.902Z,86
2023-10-09T12:46:41.678Z,87
2023-10-09T12:47:43.343Z,87
2023-10-09T12:48:44.984Z,87
2023-10-09T12:49:47.203Z,87
2023-10-09T12:50:48.654Z,87
2023-10-09T12:51:50.951Z,88
2023-10-09T12:52:53.161Z,89
2023-10-09T12:53:54.660Z,89
2023-10-09T12:54:57.076Z,89
2023-10-09T12:55:59.396Z,90
2023-10-09T12:57:01.735Z,90
2023-10-09T12:58:03.970Z,90
2023-10-09T12:59:06.277Z,91
2023-10-09T13:00:08.556Z,91
2023-10-09T13:01:11.152Z,91
2023-10-09T13:02:13.632Z,91
2023-10-09T13:03:15.981Z,91
2023-10-09T13:04:17.620Z,91
2023-10-09T13:05:19.876Z,91
2023-10-09T13:06:22.122Z,91
2023-10-09T13:07:24.370Z,91
2023-10-09T13:08:26.724Z,91
2023-10-09T13:09:28.841Z,91
2023-10-09T13:10:30.299Z,91
2023-10-09T13:11:32.763Z,91
2023-10-09T13:12:34.888Z,91
2023-10-09T13:13:37.117Z,91
2023-10-09T13:14:39.552Z,91
2023-10-09T13:15:51.954Z,91
2023-10-09T13:16:53.414Z,91
2023-10-09T13:17:56.100Z,91
2023-10-09T13:18:58.284Z,91
2023-10-09T13:20:00.771Z,91
2023-10-09T13:21:02.989Z,91
2023-10-09T13:22:05.310Z,91
2023-10-09T13:23:07.553Z,91
2023-10-09T13:24:09.712Z,91
2023-10-09T13:25:18.342Z,91
2023-10-09T13:26:32.136Z,91
2023-10-09T13:27:35.009Z,91
2023-10-09T13:28:37.262Z,91
2023-10-09T13:29:39.449Z,91
2023-10-09T13:30:41.942Z,91
2023-10-09T13:31:43.375Z,91
2023-10-09T13:32:44.776Z,91
2023-10-09T13:34:12.716Z,91
2023-10-09T13:35:15.057Z,91
2023-10-09T13:36:17.686Z,91
2023-10-09T13:37:32.151Z,91
2023-10-09T13:38:34.383Z,91
2023-10-09T13:46:42.053Z,91
2023-10-09T13:47:43.661Z,91
2023-10-09T14:02:32.089Z,91
2023-10-09T14:11:41.079Z,91
2023-10-09T14:20:02.614Z,91
2023-10-09T14:21:04.904Z,91
2023-10-09T14:22:07.110Z,91
2023-10-09T14:23:09.448Z,91
2023-10-09T14:24:11.805Z,91
2023-10-09T14:27:32.692Z,91
2023-10-09T14:28:35.079Z,91
2023-10-09T14:29:36.534Z,91
2023-10-09T14:30:51.269Z,91
2023-10-09T14:31:52.735Z,91
2023-10-09T14:32:54.204Z,91
2023-10-09T14:33:55.623Z,91
2023-10-09T14:35:51.171Z,91
2023-10-09T14:36:52.563Z,91
2023-10-09T14:37:54.007Z,91
2023-10-09T14:39:11.999Z,91
2023-10-09T14:40:14.172Z,91
2023-10-09T14:41:16.372Z,91
2023-10-09T14:44:11.801Z,91
2023-10-09T14:45:14.087Z,91
2023-10-09T14:59:12.576Z,91
2023-10-09T15:05:01.370Z,91
2023-10-09T15:10:02.693Z,91
2023-10-09T15:11:42.557Z,91
2023-10-09T15:12:44.792Z,91
2023-10-09T15:13:47.028Z,91
2023-10-09T15:15:01.158Z,91
2023-10-09T15:17:32.577Z,91
2023-10-09T15:18:34.850Z,91
2023-10-09T15:19:37.024Z,91
2023-10-09T15:20:39.244Z,91
2023-10-09T15:21:41.929Z,91
2023-10-09T15:23:22.302Z,91
2023-10-09T15:24:24.661Z,91
2023-10-09T15:25:26.949Z,91
2023-10-09T15:27:32.170Z,91
2023-10-09T15:28:34.565Z,91
2023-10-09T15:29:36.774Z,91
2023-10-09T15:30:51.454Z,91
2023-10-09T15:32:31.837Z,91
2023-10-09T15:33:36.278Z,91
2023-10-09T15:34:38.652Z,91
2023-10-09T15:35:40.949Z,91
2023-10-09T15:36:43.254Z,91
2023-10-09T15:37:44.765Z,91
2023-10-09T15:39:11.784Z,91
2023-10-09T15:40:13.951Z,91
2023-10-09T15:41:16.291Z,91
2023-10-09T15:42:18.516Z,91
2023-10-09T15:43:20.863Z,91
2023-10-09T15:44:23.636Z,91
2023-10-09T15:46:42.275Z,91
2023-10-09T15:47:44.512Z,91
2023-10-09T15:48:45.952Z,91
2023-10-09T15:51:41.991Z,91
2023-10-09T16:00:01.324Z,91
2023-10-09T16:20:52.180Z,91
2023-10-09T16:45:51.960Z,91
2023-10-09T17:05:00.872Z,91
2023-10-09T17:06:02.278Z,91
2023-10-09T17:22:31.262Z,91
2023-10-09T17:30:52.298Z,91
2023-10-09T17:44:12.050Z,91
2023-10-09T17:45:13.523Z,91
2023-10-09T21:25:00.750Z,91
2023-10-09T21:31:40.781Z,91
2023-10-09T21:35:02.363Z,91
2023-10-09T21:40:50.742Z,91
2023-10-09T22:35:02.284Z,91
2023-10-09T23:15:51.230Z,91
